sensor_id;sensor_type;location;lat;lon;timestamp;pressure;altitude;pressure_sealevel;temperature;humidity
52343;BME280;38277;51.972;4.624;2023-01-27T00:00:18;102780.0;;;7.1;85.0
52343;BME280;38277;51.972;4.624;2023-01-27T00:04:26;102780.0;;;7.2;84.5
52343;BME280;38277;51.972;4.624;2023-01-27T00:13:46;102780.0;;;7.3;83.5
52343;BME280;38277;51.972;4.624;2023-01-27T00:18:11;102780.0;;;7.3;83.5
52343;BME280;38277;51.972;4.624;2023-01-27T00:22:44;102780.0;;;7.3;83.5
52343;BME280;38277;51.972;4.624;2023-01-27T00:27:20;102770.0;;;7.4;83.5
52343;BME280;38277;51.972;4.624;2023-01-27T00:32:09;102770.0;;;7.4;83.5
52343;BME280;38277;51.972;4.624;2023-01-27T00:36:13;102760.0;;;7.4;83.0
52343;BME280;38277;51.972;4.624;2023-01-27T00:40:21;102770.0;;;7.4;82.5
52343;BME280;38277;51.972;4.624;2023-01-27T00:44:58;102770.0;;;7.4;82.0
52343;BME280;38277;51.972;4.624;2023-01-27T00:49:25;102770.0;;;7.4;82.0
52343;BME280;38277;51.972;4.624;2023-01-27T00:53:55;102770.0;;;7.3;82.0
52343;BME280;38277;51.972;4.624;2023-01-27T00:59:20;102780.0;;;7.3;82.0
52343;BME280;38277;51.972;4.624;2023-01-27T01:03:52;102770.0;;;7.3;82.5
52343;BME280;38277;51.972;4.624;2023-01-27T01:08:21;102780.0;;;7.3;82.0
52343;BME280;38277;51.972;4.624;2023-01-27T01:12:00;102790.0;;;7.3;82.0
52343;BME280;38277;51.972;4.624;2023-01-27T01:16:28;102780.0;;;7.2;82.0
52343;BME280;38277;51.972;4.624;2023-01-27T01:20:55;102780.0;;;7.2;82.0
52343;BME280;38277;51.972;4.624;2023-01-27T01:25:41;102800.0;;;7.2;81.5
52343;BME280;38277;51.972;4.624;2023-01-27T01:34:40;102790.0;;;7.1;81.5
52343;BME280;38277;51.972;4.624;2023-01-27T01:38:53;102800.0;;;7.1;81.5
52343;BME280;38277;51.972;4.624;2023-01-27T01:43:36;102800.0;;;7.1;81.0
52343;BME280;38277;51.972;4.624;2023-01-27T01:47:53;102800.0;;;7.0;81.0
52343;BME280;38277;51.972;4.624;2023-01-27T01:52:48;102810.0;;;7.0;80.5
52343;BME280;38277;51.972;4.624;2023-01-27T01:57:07;102810.0;;;6.9;81.0
52343;BME280;38277;51.972;4.624;2023-01-27T02:02:23;102810.0;;;6.9;80.5
52343;BME280;38277;51.972;4.624;2023-01-27T02:06:19;102810.0;;;6.8;80.5
52343;BME280;38277;51.972;4.624;2023-01-27T02:10:36;102810.0;;;6.8;80.5
52343;BME280;38277;51.972;4.624;2023-01-27T02:14:52;102810.0;;;6.7;80.0
52343;BME280;38277;51.972;4.624;2023-01-27T02:20:01;102820.0;;;6.6;80.0
52343;BME280;38277;51.972;4.624;2023-01-27T02:24:03;102820.0;;;6.6;80.0
52343;BME280;38277;51.972;4.624;2023-01-27T02:28:32;102820.0;;;6.6;80.0
52343;BME280;38277;51.972;4.624;2023-01-27T02:33:09;102810.0;;;6.6;80.0
52343;BME280;38277;51.972;4.624;2023-01-27T02:37:34;102810.0;;;6.6;80.5
52343;BME280;38277;51.972;4.624;2023-01-27T02:42:03;102820.0;;;6.6;80.0
52343;BME280;38277;51.972;4.624;2023-01-27T02:46:30;102810.0;;;6.6;80.5
52343;BME280;38277;51.972;4.624;2023-01-27T02:51:04;102820.0;;;6.6;81.0
52343;BME280;38277;51.972;4.624;2023-01-27T02:55:32;102820.0;;;6.6;81.0
52343;BME280;38277;51.972;4.624;2023-01-27T03:00:15;102820.0;;;6.6;81.0
52343;BME280;38277;51.972;4.624;2023-01-27T03:04:27;102840.0;;;6.5;80.5
52343;BME280;38277;51.972;4.624;2023-01-27T03:08:54;102830.0;;;6.4;80.5
52343;BME280;38277;51.972;4.624;2023-01-27T03:13:27;102830.0;;;6.4;80.5
52343;BME280;38277;51.972;4.624;2023-01-27T03:18:19;102830.0;;;6.4;80.5
52343;BME280;38277;51.972;4.624;2023-01-27T03:22:25;102830.0;;;6.3;80.0
52343;BME280;38277;51.972;4.624;2023-01-27T03:27:10;102840.0;;;6.3;80.5
52343;BME280;38277;51.972;4.624;2023-01-27T03:31:30;102840.0;;;6.3;80.5
52343;BME280;38277;51.972;4.624;2023-01-27T03:40:34;102840.0;;;6.3;80.5
52343;BME280;38277;51.972;4.624;2023-01-27T03:45:16;102850.0;;;6.3;80.5
52343;BME280;38277;51.972;4.624;2023-01-27T03:49:41;102850.0;;;6.2;81.0
52343;BME280;38277;51.972;4.624;2023-01-27T03:54:15;102860.0;;;6.2;81.0
52343;BME280;38277;51.972;4.624;2023-01-27T03:58:49;102860.0;;;6.2;81.0
52343;BME280;38277;51.972;4.624;2023-01-27T04:02:50;102870.0;;;6.1;80.5
52343;BME280;38277;51.972;4.624;2023-01-27T04:07:33;102870.0;;;6.1;80.5
52343;BME280;38277;51.972;4.624;2023-01-27T04:16:22;102890.0;;;6.1;80.5
52343;BME280;38277;51.972;4.624;2023-01-27T04:21:10;102900.0;;;6.0;80.5
52343;BME280;38277;51.972;4.624;2023-01-27T04:25:48;102910.0;;;6.0;81.0
52343;BME280;38277;51.972;4.624;2023-01-27T04:30:08;102910.0;;;6.0;81.0
52343;BME280;38277;51.972;4.624;2023-01-27T04:34:32;102910.0;;;6.0;81.5
52343;BME280;38277;51.972;4.624;2023-01-27T04:43:33;102920.0;;;6.0;81.5
52343;BME280;38277;51.972;4.624;2023-01-27T04:48:05;102910.0;;;6.0;81.0
52343;BME280;38277;51.972;4.624;2023-01-27T04:52:23;102910.0;;;6.0;81.0
52343;BME280;38277;51.972;4.624;2023-01-27T04:57:10;102920.0;;;5.9;81.0
52343;BME280;38277;51.972;4.624;2023-01-27T05:02:29;102920.0;;;5.9;81.0
52343;BME280;38277;51.972;4.624;2023-01-27T05:06:07;102930.0;;;5.9;81.0
52343;BME280;38277;51.972;4.624;2023-01-27T05:10:41;102920.0;;;5.9;80.5
52343;BME280;38277;51.972;4.624;2023-01-27T05:15:00;102930.0;;;5.9;80.0
52343;BME280;38277;51.972;4.624;2023-01-27T05:19:42;102920.0;;;5.9;80.0
52343;BME280;38277;51.972;4.624;2023-01-27T05:24:08;102920.0;;;5.9;80.0
52343;BME280;38277;51.972;4.624;2023-01-27T05:28:50;102930.0;;;5.9;80.0
52343;BME280;38277;51.972;4.624;2023-01-27T05:33:15;102940.0;;;6.0;80.0
52343;BME280;38277;51.972;4.624;2023-01-27T05:37:22;102930.0;;;6.0;79.5
52343;BME280;38277;51.972;4.624;2023-01-27T05:41:54;102930.0;;;6.0;79.5
52343;BME280;38277;51.972;4.624;2023-01-27T05:46:31;102940.0;;;6.0;79.0
52343;BME280;38277;51.972;4.624;2023-01-27T05:50:58;102950.0;;;6.0;79.0
52343;BME280;38277;51.972;4.624;2023-01-27T05:56:18;102950.0;;;6.0;79.0
52343;BME280;38277;51.972;4.624;2023-01-27T06:00:17;102940.0;;;6.0;78.5
52343;BME280;38277;51.972;4.624;2023-01-27T06:04:26;102950.0;;;6.0;79.0
52343;BME280;38277;51.972;4.624;2023-01-27T06:09:03;102950.0;;;6.1;78.5
52343;BME280;38277;51.972;4.624;2023-01-27T06:18:10;102950.0;;;6.2;78.5
52343;BME280;38277;51.972;4.624;2023-01-27T06:22:42;102950.0;;;6.2;77.5
52343;BME280;38277;51.972;4.624;2023-01-27T06:27:10;102950.0;;;6.3;77.0
52343;BME280;38277;51.972;4.624;2023-01-27T06:36:05;102960.0;;;6.3;76.5
52343;BME280;38277;51.972;4.624;2023-01-27T06:40:24;102970.0;;;6.3;76.5
52343;BME280;38277;51.972;4.624;2023-01-27T06:45:15;102970.0;;;6.3;76.0
52343;BME280;38277;51.972;4.624;2023-01-27T06:54:03;102980.0;;;6.3;76.0
52343;BME280;38277;51.972;4.624;2023-01-27T06:58:26;102990.0;;;6.3;75.5
52343;BME280;38277;51.972;4.624;2023-01-27T07:03:16;102980.0;;;6.2;74.5
52343;BME280;38277;51.972;4.624;2023-01-27T07:12:11;102990.0;;;6.1;74.0
52343;BME280;38277;51.972;4.624;2023-01-27T07:16:27;102990.0;;;6.1;75.0
52343;BME280;38277;51.972;4.624;2023-01-27T07:21:08;102990.0;;;6.0;74.5
52343;BME280;38277;51.972;4.624;2023-01-27T07:25:24;102990.0;;;6.0;75.0
52343;BME280;38277;51.972;4.624;2023-01-27T07:30:41;103000.0;;;6.0;75.0
52343;BME280;38277;51.972;4.624;2023-01-27T07:34:49;103000.0;;;6.0;75.5
52343;BME280;38277;51.972;4.624;2023-01-27T07:39:59;103000.0;;;6.0;75.5
52343;BME280;38277;51.972;4.624;2023-01-27T07:43:21;103000.0;;;5.9;74.5
52343;BME280;38277;51.972;4.624;2023-01-27T07:48:52;103020.0;;;5.8;74.5
52343;BME280;38277;51.972;4.624;2023-01-27T07:52:24;103020.0;;;5.8;74.0
52343;BME280;38277;51.972;4.624;2023-01-27T07:56:58;103030.0;;;5.7;74.0
52343;BME280;38277;51.972;4.624;2023-01-27T08:01:37;103040.0;;;5.7;73.5
52343;BME280;38277;51.972;4.624;2023-01-27T08:06:36;103040.0;;;5.7;74.0
52343;BME280;38277;51.972;4.624;2023-01-27T08:10:49;103040.0;;;5.7;74.5
52343;BME280;38277;51.972;4.624;2023-01-27T08:19:23;103040.0;;;5.8;75.0
52343;BME280;38277;51.972;4.624;2023-01-27T08:23:59;103050.0;;;5.9;75.0
52343;BME280;38277;51.972;4.624;2023-01-27T08:28:38;103050.0;;;5.9;74.5
52343;BME280;38277;51.972;4.624;2023-01-27T08:37:37;103050.0;;;5.9;75.0
52343;BME280;38277;51.972;4.624;2023-01-27T08:41:54;103050.0;;;5.9;74.5
52343;BME280;38277;51.972;4.624;2023-01-27T08:46:45;103060.0;;;5.9;75.0
52343;BME280;38277;51.972;4.624;2023-01-27T08:51:18;103060.0;;;6.0;74.5
52343;BME280;38277;51.972;4.624;2023-01-27T09:00:09;103060.0;;;6.0;74.5
52343;BME280;38277;51.972;4.624;2023-01-27T09:04:44;103070.0;;;6.1;74.0
52343;BME280;38277;51.972;4.624;2023-01-27T09:13:42;103070.0;;;6.2;73.5
52343;BME280;38277;51.972;4.624;2023-01-27T09:18:14;103070.0;;;6.2;73.5
52343;BME280;38277;51.972;4.624;2023-01-27T09:22:48;103070.0;;;6.3;73.5
52343;BME280;38277;51.972;4.624;2023-01-27T09:36:19;103080.0;;;6.0;73.5
52343;BME280;38277;51.972;4.624;2023-01-27T09:40:32;103080.0;;;6.0;74.0
52343;BME280;38277;51.972;4.624;2023-01-27T09:51:19;103070.0;;;5.9;74.0
52343;BME280;38277;51.972;4.624;2023-01-27T09:56:52;103070.0;;;5.9;74.5
52343;BME280;38277;51.972;4.624;2023-01-27T10:01:48;103060.0;;;5.9;74.5
52343;BME280;38277;51.972;4.624;2023-01-27T10:12:57;103070.0;;;5.9;74.0
52343;BME280;38277;51.972;4.624;2023-01-27T10:23:43;103070.0;;;5.9;74.0
52343;BME280;38277;51.972;4.624;2023-01-27T10:27:36;103080.0;;;5.9;73.5
52343;BME280;38277;51.972;4.624;2023-01-27T10:30:20;103070.0;;;5.9;73.0
52343;BME280;38277;51.972;4.624;2023-01-27T10:37:43;103080.0;;;6.0;73.5
52343;BME280;38277;51.972;4.624;2023-01-27T10:42:14;103080.0;;;6.0;74.0
52343;BME280;38277;51.972;4.624;2023-01-27T10:47:09;103070.0;;;6.1;73.5
52343;BME280;38277;51.972;4.624;2023-01-27T10:50:44;103070.0;;;6.1;73.0
52343;BME280;38277;51.972;4.624;2023-01-27T10:53:46;103080.0;;;6.1;73.5
52343;BME280;38277;51.972;4.624;2023-01-27T10:57:16;103080.0;;;6.1;73.0
52343;BME280;38277;51.972;4.624;2023-01-27T11:01:45;103080.0;;;6.2;73.0
52343;BME280;38277;51.972;4.624;2023-01-27T11:05:51;103070.0;;;6.4;73.5
52343;BME280;38277;51.972;4.624;2023-01-27T11:10:35;103070.0;;;6.8;73.5
52343;BME280;38277;51.972;4.624;2023-01-27T11:14:51;103050.0;;;7.1;72.5
52343;BME280;38277;51.972;4.624;2023-01-27T11:20:27;103060.0;;;7.4;71.5
52343;BME280;38277;51.972;4.624;2023-01-27T11:24:20;103060.0;;;7.5;70.5
52343;BME280;38277;51.972;4.624;2023-01-27T11:28:49;103060.0;;;7.7;70.5
52343;BME280;38277;51.972;4.624;2023-01-27T11:33:22;103060.0;;;7.7;69.0
52343;BME280;38277;51.972;4.624;2023-01-27T11:37:38;103050.0;;;7.7;68.5
52343;BME280;38277;51.972;4.624;2023-01-27T11:42:13;103050.0;;;7.7;69.0
52343;BME280;38277;51.972;4.624;2023-01-27T11:46:35;103050.0;;;7.7;70.0
52343;BME280;38277;51.972;4.624;2023-01-27T11:51:13;103040.0;;;7.7;70.0
52343;BME280;38277;51.972;4.624;2023-01-27T11:55:41;103040.0;;;7.6;69.5
52343;BME280;38277;51.972;4.624;2023-01-27T12:00:03;103040.0;;;7.5;70.0
52343;BME280;38277;51.972;4.624;2023-01-27T12:04:42;103030.0;;;7.5;70.5
52343;BME280;38277;51.972;4.624;2023-01-27T12:18:15;103010.0;;;7.3;71.0
52343;BME280;38277;51.972;4.624;2023-01-27T12:22:49;103020.0;;;7.2;71.0
52343;BME280;38277;51.972;4.624;2023-01-27T12:27:22;103030.0;;;7.1;72.0
52343;BME280;38277;51.972;4.624;2023-01-27T12:45:20;103020.0;;;7.0;73.5
52343;BME280;38277;51.972;4.624;2023-01-27T12:54:13;103020.0;;;7.0;74.5
52343;BME280;38277;51.972;4.624;2023-01-27T12:58:28;103010.0;;;7.0;74.5
52343;BME280;38277;51.972;4.624;2023-01-27T13:03:11;103010.0;;;7.0;74.5
52343;BME280;38277;51.972;4.624;2023-01-27T13:07:46;103020.0;;;7.0;74.5
52343;BME280;38277;51.972;4.624;2023-01-27T13:13:16;103010.0;;;7.0;74.0
52343;BME280;38277;51.972;4.624;2023-01-27T13:17:45;103020.0;;;6.9;73.5
52343;BME280;38277;51.972;4.624;2023-01-27T13:22:52;103010.0;;;6.9;74.0
52343;BME280;38277;51.972;4.624;2023-01-27T13:25:52;103020.0;;;6.9;75.0
52343;BME280;38277;51.972;4.624;2023-01-27T13:31:04;103010.0;;;7.0;74.5
52343;BME280;38277;51.972;4.624;2023-01-27T13:35:05;103010.0;;;7.0;73.5
52343;BME280;38277;51.972;4.624;2023-01-27T13:39:44;103020.0;;;7.0;73.5
52343;BME280;38277;51.972;4.624;2023-01-27T13:43:37;103010.0;;;7.0;72.5
52343;BME280;38277;51.972;4.624;2023-01-27T13:48:13;103020.0;;;6.9;73.0
52343;BME280;38277;51.972;4.624;2023-01-27T13:53:15;103020.0;;;7.0;73.5
52343;BME280;38277;51.972;4.624;2023-01-27T13:57:11;103010.0;;;7.0;73.0
52343;BME280;38277;51.972;4.624;2023-01-27T14:03:05;103020.0;;;7.0;73.0
52343;BME280;38277;51.972;4.624;2023-01-27T14:08:39;103020.0;;;6.9;73.5
52343;BME280;38277;51.972;4.624;2023-01-27T14:14:23;103020.0;;;6.9;74.0
52343;BME280;38277;51.972;4.624;2023-01-27T14:19:53;103010.0;;;6.9;74.0
52343;BME280;38277;51.972;4.624;2023-01-27T14:23:02;103030.0;;;6.8;74.0
52343;BME280;38277;51.972;4.624;2023-01-27T14:27:54;103020.0;;;6.8;73.5
52343;BME280;38277;51.972;4.624;2023-01-27T14:31:51;103020.0;;;6.7;73.5
52343;BME280;38277;51.972;4.624;2023-01-27T14:36:56;103030.0;;;6.6;73.5
52343;BME280;38277;51.972;4.624;2023-01-27T14:40:44;103030.0;;;6.6;73.5
52343;BME280;38277;51.972;4.624;2023-01-27T14:45:34;103050.0;;;6.6;74.0
52343;BME280;38277;51.972;4.624;2023-01-27T14:49:31;103040.0;;;6.6;74.0
52343;BME280;38277;51.972;4.624;2023-01-27T14:54:15;103050.0;;;6.6;75.0
52343;BME280;38277;51.972;4.624;2023-01-27T14:59:22;103050.0;;;6.6;75.5
52343;BME280;38277;51.972;4.624;2023-01-27T15:06:01;103060.0;;;6.6;75.5
52343;BME280;38277;51.972;4.624;2023-01-27T15:09:55;103060.0;;;6.5;75.5
52343;BME280;38277;51.972;4.624;2023-01-27T15:14:44;103060.0;;;6.5;75.5
52343;BME280;38277;51.972;4.624;2023-01-27T15:20:33;103070.0;;;6.5;74.5
52343;BME280;38277;51.972;4.624;2023-01-27T15:25:40;103060.0;;;6.5;74.5
52343;BME280;38277;51.972;4.624;2023-01-27T15:26:48;103070.0;;;6.4;74.5
52343;BME280;38277;51.972;4.624;2023-01-27T15:27:15;103080.0;;;6.3;74.0
52343;BME280;38277;51.972;4.624;2023-01-27T15:31:34;103080.0;;;6.3;75.0
52343;BME280;38277;51.972;4.624;2023-01-27T15:37:12;103090.0;;;6.3;74.5
52343;BME280;38277;51.972;4.624;2023-01-27T15:40:23;103080.0;;;6.2;75.0
52343;BME280;38277;51.972;4.624;2023-01-27T15:45:24;103080.0;;;6.2;76.0
52343;BME280;38277;51.972;4.624;2023-01-27T15:49:49;103070.0;;;6.2;76.0
52343;BME280;38277;51.972;4.624;2023-01-27T15:54:16;103080.0;;;6.2;76.5
52343;BME280;38277;51.972;4.624;2023-01-27T15:58:54;103080.0;;;6.2;76.5
52343;BME280;38277;51.972;4.624;2023-01-27T16:03:25;103080.0;;;6.1;76.5
52343;BME280;38277;51.972;4.624;2023-01-27T16:07:37;103090.0;;;6.1;76.5
52343;BME280;38277;51.972;4.624;2023-01-27T16:12:03;103100.0;;;6.1;76.5
52343;BME280;38277;51.972;4.624;2023-01-27T16:16:39;103090.0;;;6.0;76.5
52343;BME280;38277;51.972;4.624;2023-01-27T16:20:55;103090.0;;;6.0;77.0
52343;BME280;38277;51.972;4.624;2023-01-27T16:25:59;103100.0;;;5.9;76.5
52343;BME280;38277;51.972;4.624;2023-01-27T16:30:16;103110.0;;;5.9;76.0
52343;BME280;38277;51.972;4.624;2023-01-27T16:34:46;103120.0;;;5.8;76.0
52343;BME280;38277;51.972;4.624;2023-01-27T16:39:26;103110.0;;;5.8;76.5
52343;BME280;38277;51.972;4.624;2023-01-27T16:43:40;103120.0;;;5.8;76.0
52343;BME280;38277;51.972;4.624;2023-01-27T16:48:05;103120.0;;;5.8;77.0
52343;BME280;38277;51.972;4.624;2023-01-27T16:52:29;103130.0;;;5.8;77.0
52343;BME280;38277;51.972;4.624;2023-01-27T17:01:47;103130.0;;;5.9;77.5
52343;BME280;38277;51.972;4.624;2023-01-27T17:06:28;103130.0;;;6.0;77.0
52343;BME280;38277;51.972;4.624;2023-01-27T17:10:21;103140.0;;;6.0;76.0
52343;BME280;38277;51.972;4.624;2023-01-27T17:15:15;103150.0;;;5.9;76.0
52343;BME280;38277;51.972;4.624;2023-01-27T17:24:15;103150.0;;;5.9;76.0
52343;BME280;38277;51.972;4.624;2023-01-27T17:28:29;103150.0;;;5.9;76.0
52343;BME280;38277;51.972;4.624;2023-01-27T17:37:40;103160.0;;;5.9;76.5
52343;BME280;38277;51.972;4.624;2023-01-27T17:42:11;103150.0;;;5.9;77.0
52343;BME280;38277;51.972;4.624;2023-01-27T17:46:26;103170.0;;;6.0;77.5
52343;BME280;38277;51.972;4.624;2023-01-27T17:55:29;103170.0;;;6.0;78.0
52343;BME280;38277;51.972;4.624;2023-01-27T18:00:29;103180.0;;;6.0;78.0
52343;BME280;38277;51.972;4.624;2023-01-27T18:04:35;103190.0;;;6.0;78.0
52343;BME280;38277;51.972;4.624;2023-01-27T18:09:13;103190.0;;;5.9;77.5
52343;BME280;38277;51.972;4.624;2023-01-27T18:14:16;103200.0;;;5.9;77.5
52343;BME280;38277;51.972;4.624;2023-01-27T18:18:20;103190.0;;;5.9;77.0
52343;BME280;38277;51.972;4.624;2023-01-27T18:22:43;103200.0;;;5.9;77.0
52343;BME280;38277;51.972;4.624;2023-01-27T18:27:25;103200.0;;;5.8;76.5
52343;BME280;38277;51.972;4.624;2023-01-27T18:31:44;103210.0;;;5.8;76.0
52343;BME280;38277;51.972;4.624;2023-01-27T18:36:20;103210.0;;;5.8;75.5
52343;BME280;38277;51.972;4.624;2023-01-27T18:40:35;103210.0;;;5.7;75.5
52343;BME280;38277;51.972;4.624;2023-01-27T18:45:14;103220.0;;;5.7;76.0
52343;BME280;38277;51.972;4.624;2023-01-27T18:49:21;103230.0;;;5.8;76.0
52343;BME280;38277;51.972;4.624;2023-01-27T18:54:08;103230.0;;;5.7;75.5
52343;BME280;38277;51.972;4.624;2023-01-27T18:58:42;103240.0;;;5.7;75.5
52343;BME280;38277;51.972;4.624;2023-01-27T19:02:52;103240.0;;;5.7;76.0
52343;BME280;38277;51.972;4.624;2023-01-27T19:07:26;103230.0;;;5.7;76.5
52343;BME280;38277;51.972;4.624;2023-01-27T19:16:33;103230.0;;;5.8;77.0
52343;BME280;38277;51.972;4.624;2023-01-27T19:20:57;103240.0;;;5.8;77.0
52343;BME280;38277;51.972;4.624;2023-01-27T19:25:50;103240.0;;;5.7;77.5
52343;BME280;38277;51.972;4.624;2023-01-27T19:29:54;103250.0;;;5.8;77.5
52343;BME280;38277;51.972;4.624;2023-01-27T19:34:35;103250.0;;;5.7;78.0
52343;BME280;38277;51.972;4.624;2023-01-27T19:39:14;103240.0;;;5.7;78.0
52343;BME280;38277;51.972;4.624;2023-01-27T19:43:43;103250.0;;;5.7;78.0
52343;BME280;38277;51.972;4.624;2023-01-27T19:48:07;103240.0;;;5.7;78.5
52343;BME280;38277;51.972;4.624;2023-01-27T19:52:41;103240.0;;;5.7;77.5
52343;BME280;38277;51.972;4.624;2023-01-27T19:56:52;103240.0;;;5.6;77.5
52343;BME280;38277;51.972;4.624;2023-01-27T20:02:30;103240.0;;;5.6;77.5
52343;BME280;38277;51.972;4.624;2023-01-27T20:06:16;103230.0;;;5.6;77.5
52343;BME280;38277;51.972;4.624;2023-01-27T20:10:27;103240.0;;;5.6;77.5
52343;BME280;38277;51.972;4.624;2023-01-27T20:20:25;103230.0;;;5.6;77.5
52343;BME280;38277;51.972;4.624;2023-01-27T20:24:12;103240.0;;;5.5;77.5
52343;BME280;38277;51.972;4.624;2023-01-27T20:28:43;103240.0;;;5.5;78.0
52343;BME280;38277;51.972;4.624;2023-01-27T20:38:28;103240.0;;;5.5;77.5
52343;BME280;38277;51.972;4.624;2023-01-27T20:42:54;103250.0;;;5.5;78.0
52343;BME280;38277;51.972;4.624;2023-01-27T20:46:28;103240.0;;;5.5;77.5
52343;BME280;38277;51.972;4.624;2023-01-27T20:51:08;103240.0;;;5.5;77.5
52343;BME280;38277;51.972;4.624;2023-01-27T20:55:26;103240.0;;;5.4;77.5
52343;BME280;38277;51.972;4.624;2023-01-27T20:59:54;103230.0;;;5.4;78.0
52343;BME280;38277;51.972;4.624;2023-01-27T21:04:40;103240.0;;;5.4;77.0
52343;BME280;38277;51.972;4.624;2023-01-27T21:08:56;103240.0;;;5.4;77.5
52343;BME280;38277;51.972;4.624;2023-01-27T21:14:10;103240.0;;;5.4;78.0
52343;BME280;38277;51.972;4.624;2023-01-27T21:18:56;103240.0;;;5.4;78.5
52343;BME280;38277;51.972;4.624;2023-01-27T21:22:26;103240.0;;;5.5;78.5
52343;BME280;38277;51.972;4.624;2023-01-27T21:27:53;103230.0;;;5.5;79.0
52343;BME280;38277;51.972;4.624;2023-01-27T21:31:38;103220.0;;;5.5;79.0
52343;BME280;38277;51.972;4.624;2023-01-27T21:36:53;103230.0;;;5.5;79.0
52343;BME280;38277;51.972;4.624;2023-01-27T21:45:57;103220.0;;;5.4;79.0
52343;BME280;38277;51.972;4.624;2023-01-27T21:49:31;103210.0;;;5.4;79.5
52343;BME280;38277;51.972;4.624;2023-01-27T21:53:54;103220.0;;;5.4;79.5
52343;BME280;38277;51.972;4.624;2023-01-27T21:58:21;103220.0;;;5.4;79.5
52343;BME280;38277;51.972;4.624;2023-01-27T22:03:03;103220.0;;;5.4;79.5
52343;BME280;38277;51.972;4.624;2023-01-27T22:07:29;103210.0;;;5.3;79.0
52343;BME280;38277;51.972;4.624;2023-01-27T22:11:51;103210.0;;;5.3;79.5
52343;BME280;38277;51.972;4.624;2023-01-27T22:16:35;103230.0;;;5.3;79.5
52343;BME280;38277;51.972;4.624;2023-01-27T22:21:57;103220.0;;;5.3;79.5
52343;BME280;38277;51.972;4.624;2023-01-27T22:25:30;103210.0;;;5.3;80.0
52343;BME280;38277;51.972;4.624;2023-01-27T22:30:07;103210.0;;;5.3;80.0
52343;BME280;38277;51.972;4.624;2023-01-27T22:34:38;103210.0;;;5.2;80.0
52343;BME280;38277;51.972;4.624;2023-01-27T22:39:44;103210.0;;;5.2;80.0
52343;BME280;38277;51.972;4.624;2023-01-27T22:43:48;103210.0;;;5.2;80.5
52343;BME280;38277;51.972;4.624;2023-01-27T22:47:51;103200.0;;;5.2;80.0
52343;BME280;38277;51.972;4.624;2023-01-27T22:53:10;103200.0;;;5.2;80.5
52343;BME280;38277;51.972;4.624;2023-01-27T22:58:04;103200.0;;;5.2;80.5
52343;BME280;38277;51.972;4.624;2023-01-27T23:01:40;103200.0;;;5.1;80.5
52343;BME280;38277;51.972;4.624;2023-01-27T23:06:02;103210.0;;;5.1;80.5
52343;BME280;38277;51.972;4.624;2023-01-27T23:10:38;103210.0;;;5.1;80.5
52343;BME280;38277;51.972;4.624;2023-01-27T23:15:40;103200.0;;;5.1;81.0
52343;BME280;38277;51.972;4.624;2023-01-27T23:19:43;103210.0;;;5.1;81.0
52343;BME280;38277;51.972;4.624;2023-01-27T23:23:59;103210.0;;;5.1;80.5
52343;BME280;38277;51.972;4.624;2023-01-27T23:28:47;103220.0;;;5.2;81.0
52343;BME280;38277;51.972;4.624;2023-01-27T23:32:53;103220.0;;;5.1;81.0
52343;BME280;38277;51.972;4.624;2023-01-27T23:37:22;103220.0;;;5.1;81.0
52343;BME280;38277;51.972;4.624;2023-01-27T23:42:01;103210.0;;;5.1;81.0
52343;BME280;38277;51.972;4.624;2023-01-27T23:46:25;103210.0;;;5.1;81.0
52343;BME280;38277;51.972;4.624;2023-01-27T23:51:04;103210.0;;;5.1;81.5
52343;BME280;38277;51.972;4.624;2023-01-27T23:55:43;103220.0;;;5.1;81.0
